METAR Data
IDs: Format: Raw Decoded Include TAF

Data at: 2058 UTC 18 Sep 2018

KOSA 182030Z AUTO 24005KT 10SM CLR 35/20 A2993 RMK AO1 T03460203
KOSA 181950Z AUTO 29004KT 10SM CLR 34/21 A2994 RMK AO1 T03400206
KOSA 181935Z AUTO 22006KT 10SM CLR 34/21 A2995 RMK AO1 T03410207
KOSA 181915Z AUTO 24006KT 10SM CLR 34/21 A2995 RMK AO1 T03400207
KOSA 181855Z AUTO 25004KT 10SM CLR 34/21 A2996 RMK AO1 T03370206
KOSA 181835Z AUTO 00000KT 10SM CLR 34/21 A2997 RMK AO1 T03350205
KOSA 181815Z AUTO 27005KT 10SM CLR 33/21 A2998 RMK AO1 T03340208
KOSA 181755Z AUTO 23003KT 10SM CLR 33/21 A2999 RMK AO1 T03310209 10334 20222
KOSA 181735Z AUTO 21004KT 10SM CLR 33/21 A3000 RMK AO1 T03300214
KOSA 181715Z AUTO 27006KT 10SM CLR 33/20 A3001 RMK AO1 T03300204
KOSA 181700Z AUTO 25004KT 10SM CLR 33/20 A3002 RMK AO1 T03250203
KOSA 181635Z AUTO 00000KT 10SM CLR 32/21 A3002 RMK AO1 T03210213
KOSA 181615Z AUTO 23004KT 10SM CLR 32/22 A3002 RMK AO1 T03200219
KOSA 181555Z AUTO 00000KT 10SM CLR 31/22 A3002 RMK AO1 T03140216
KOSA 181530Z AUTO 00000KT 10SM CLR 31/23 A3003 RMK AO1 T03050228
KOSA 181515Z AUTO 24003KT 10SM CLR 30/23 A3003 RMK AO1 T03010228
KOSA 181455Z AUTO 00000KT 10SM CLR 29/23 A3003 RMK AO1 T02920230
KOSA 181435Z AUTO 00000KT 10SM CLR 28/23 A3002 RMK AO1 T02820234
KOSA 181415Z AUTO 00000KT 7SM CLR 27/23 A3002 RMK AO1 T02720234
KOSA 181355Z AUTO 00000KT 7SM CLR 27/23 A3002 RMK AO1 T02650234
KOSA 181335Z AUTO 00000KT 5SM CLR 25/23 A3002 RMK AO1 T02510230
KOSA 181315Z AUTO 00000KT 4SM CLR 24/23 A3002 RMK AO1 T02410227
KOSA 181255Z AUTO 00000KT 3SM CLR 23/22 A3002 RMK AO1 T02300220
KOSA 181235Z AUTO 00000KT 1 3/4SM VV007 23/22 A3002 RMK AO1 T02250215
KOSA 181215Z AUTO 00000KT 3SM CLR 23/22 A3001 RMK AO1 T02260217
KOSA 181155Z AUTO 00000KT 1SM VV007 22/22 A3001 RMK AO1 VIS 1/2V5 T02220215 10241 20220
KOSA 181135Z AUTO 00000KT 3SM CLR 22/21 A3001 RMK AO1 T02220213
KOSA 181115Z AUTO 04003KT 3SM CLR 23/22 A3000 RMK AO1 T02250216
KOSA 181055Z AUTO 00000KT 3SM CLR 22/21 A3000 RMK AO1 T02220213
KOSA 181030Z AUTO 00000KT 3SM CLR 22/21 A2999 RMK AO1 T02220211
KOSA 181015Z AUTO 00000KT 7SM CLR 24/22 A2999 RMK AO1 T02350222
KOSA 180950Z AUTO 00000KT 4SM CLR 23/22 A2999 RMK AO1 T02310221
KOSA 180935Z AUTO 00000KT 4SM CLR 23/22 A2998 RMK AO1 T02300219
KOSA 180915Z AUTO 00000KT 7SM CLR 23/22 A2998 RMK AO1 T02320220
KOSA 180855Z AUTO 00000KT 4SM CLR 23/22 A2998 RMK AO1 T02300221
KOSA 180835Z AUTO 00000KT 4SM CLR 23/22 A2998 RMK AO1 T02300220
KOSA 180815Z AUTO 00000KT 5SM CLR 23/22 A2998 RMK AO1 T02310221
KOSA 180750Z AUTO 00000KT 4SM CLR 23/22 A2999 RMK AO1 T02300220
KOSA 180735Z AUTO 00000KT 7SM CLR 24/23 A2999 RMK AO1 T02370225
KOSA 180710Z AUTO 00000KT 7SM CLR 24/23 A2999 RMK AO1 T02380226
KOSA 180655Z AUTO 00000KT 5SM CLR 24/23 A2999 RMK AO1 T02350225
KOSA 180635Z AUTO 00000KT 5SM CLR 24/22 A2998 RMK AO1 T02350224
KOSA 180615Z AUTO 00000KT 5SM CLR 24/23 A2998 RMK AO1 T02370227
KOSA 180555Z AUTO 00000KT 7SM CLR 24/23 A2999 RMK AO1 T02400230 10298 20240 403430210
KOSA 180535Z AUTO 00000KT 7SM CLR 24/23 A2999 RMK AO1 T02430231
KOSA 180515Z AUTO 00000KT 7SM CLR 25/23 A2999 RMK AO1 T02450230
KOSA 180455Z AUTO 00000KT 10SM CLR 25/23 A2999 RMK AO1 T02500230
KOSA 180435Z AUTO 00000KT 7SM CLR 24/23 A2999 RMK AO1 T02440230
KOSA 180415Z AUTO 00000KT 10SM CLR 25/23 A2999 RMK AO1 T02520230
KOSA 180355Z AUTO 00000KT 10SM CLR 26/23 A2999 RMK AO1 T02560234
KOSA 180335Z AUTO 00000KT 10SM CLR 26/23 A2998 RMK AO1 T02590232
KOSA 180315Z AUTO 00000KT 10SM CLR 26/23 A2998 RMK AO1 T02600231
KOSA 180255Z AUTO 00000KT 10SM CLR 25/23 A2997 RMK AO1 T02540233
KOSA 180235Z AUTO 00000KT 10SM CLR 26/23 A2996 RMK AO1 T02620230
KOSA 180215Z AUTO 00000KT 10SM CLR 27/23 A2996 RMK AO1 T02700228
KOSA 180155Z AUTO 00000KT 10SM CLR 27/23 A2995 RMK AO1 T02670231
KOSA 180135Z AUTO 13003KT 10SM CLR 26/24 A2994 RMK AO1 T02600235
KOSA 180115Z AUTO 00000KT 10SM CLR 27/23 A2994 RMK AO1 T02730232
KOSA 180055Z AUTO 00000KT 10SM CLR 28/23 A2993 RMK AO1 T02800231
KOSA 180035Z AUTO 32003KT 10SM CLR 30/23 A2992 RMK AO1 T02950229
KOSA 180015Z AUTO 27003KT 10SM CLR 30/23 A2992 RMK AO1 T02950231
KOSA 172355Z AUTO 25004KT 10SM CLR 30/23 A2992 RMK AO1 T02990229 10343 20299
KOSA 172335Z AUTO 25004KT 10SM CLR 31/23 A2992 RMK AO1 T03070225
KOSA 172315Z AUTO 25007KT 10SM CLR 31/22 A2993 RMK AO1 T03120220
KOSA 172255Z AUTO 25009KT 10SM CLR 32/21 A2993 RMK AO1 T03200213
KOSA 172230Z AUTO 25005KT 10SM CLR 34/20 A2992 RMK AO1 T03360196
KOSA 172215Z AUTO 23005KT 10SM CLR 34/19 A2992 RMK AO1 T03400193
KOSA 172155Z AUTO 21003KT 10SM CLR 34/19 A2992 RMK AO1 T03390186
KOSA 172135Z AUTO 24004KT 10SM CLR 34/18 A2992 RMK AO1 T03420179
KOSA 172115Z AUTO 24004KT 10SM CLR 34/19 A2993 RMK AO1 T03400189
KOSA 172055Z AUTO 25006KT 10SM CLR 34/20 A2993 RMK AO1 T03400195
KOSA 172035Z AUTO 23007KT 10SM CLR 34/19 A2993 RMK AO1 T03390194
KOSA 172015Z AUTO 22006KT 10SM CLR 34/19 A2994 RMK AO1 T03400186
KOSA 171955Z AUTO 27006KT 10SM CLR 34/20 A2995 RMK AO1 T03410195
KOSA 171935Z AUTO 25006KT 10SM CLR 34/19 A2995 RMK AO1 T03420186
KOSA 171915Z AUTO 25004KT 10SM CLR 34/18 A2996 RMK AO1 T03360184
KOSA 171855Z AUTO 26005KT 10SM CLR 34/19 A2997 RMK AO1 T03360187
KOSA 171835Z AUTO 24005KT 10SM CLR 34/18 A2998 RMK AO1 T03350181
KOSA 171815Z AUTO 26006KT 10SM CLR 33/18 A2999 RMK AO1 T03300184
KOSA 171755Z AUTO 24005KT 10SM CLR 33/19 A3000 RMK AO1 T03300189 10331 20210
KOSA 171735Z AUTO 26006KT 10SM CLR 33/19 A3000 RMK AO1 T03280187
KOSA 171715Z AUTO 27006KT 10SM CLR 33/21 A3001 RMK AO1 T03270205
KOSA 171655Z AUTO 26006KT 10SM CLR 32/22 A3001 RMK AO1 T03210218
KOSA 171635Z AUTO 22003KT 10SM CLR 32/21 A3002 RMK AO1 T03160209
KOSA 171615Z AUTO 19004KT 10SM CLR 31/20 A3002 RMK AO1 T03130202
KOSA 171555Z AUTO 00000KT 10SM CLR 31/21 A3002 RMK AO1 T03110210
KOSA 171535Z AUTO 00000KT 10SM CLR 30/21 A3002 RMK AO1 T03030214
KOSA 171515Z AUTO 00000KT 10SM CLR 30/22 A3002 RMK AO1 T02970220
KOSA 171455Z AUTO 00000KT 10SM CLR 29/22 A3002 RMK AO1 T02860215
KOSA 171435Z AUTO 00000KT 10SM CLR 28/21 A3001 RMK AO1 T02780212
KOSA 171415Z AUTO 00000KT 10SM CLR 27/22 A3001 RMK AO1 T02660216
KOSA 171355Z AUTO 00000KT 10SM CLR 26/22 A3000 RMK AO1 T02550220
KOSA 171335Z AUTO 00000KT 10SM CLR 24/22 A3000 RMK AO1 T02420215
KOSA 171315Z AUTO 00000KT 7SM CLR 23/22 A2999 RMK AO1 T02300215
KOSA 171255Z AUTO 00000KT 7SM CLR 22/20 A2999 RMK AO1 T02160204
KOSA 171235Z AUTO 00000KT 7SM CLR 21/20 A2998 RMK AO1 T02140202
KOSA 171215Z AUTO 00000KT 7SM CLR 21/20 A2997 RMK AO1 T02120200
KOSA 171155Z AUTO 00000KT 10SM CLR 22/20 A2997 RMK AO1 T02150202 10237 20210
KOSA 171135Z AUTO 00000KT 7SM CLR 21/20 A2997 RMK AO1 T02100200
KOSA 171115Z AUTO 00000KT 7SM CLR 22/21 A2996 RMK AO1 T02150205
KOSA 171055Z AUTO 00000KT 7SM CLR 21/20 A2995 RMK AO1 T02120201
KOSA 171035Z AUTO 21003KT 10SM CLR 22/20 A2995 RMK AO1 T02160203
KOSA 171015Z AUTO 00000KT 10SM CLR 22/20 A2995 RMK AO1 T02190204
KOSA 170955Z AUTO 00000KT 10SM CLR 22/20 A2994 RMK AO1 T02180203
KOSA 170935Z AUTO 00000KT 10SM CLR 22/20 A2994 RMK AO1 T02160202
KOSA 170915Z AUTO 00000KT 10SM CLR 22/21 A2994 RMK AO1 T02210205